DLH12A EDDF-EDDM
Flight info
| Callsign | DLH12A |
|---|---|
| Flight time | 0h 39m |
| Altitude | 19000 |
| Route | CINDY8S/18 CINDY Z74 HAREM T104 ROKIL ROKIL1B |
| Aircraft | A20N/M-SDE2E3FGHIRWXY/LB1 |
Departure
| Time | 2026-05-05 18:24 |
|---|---|
| Airport | Frankfurt Main Airport (EDDF) |
Arrival
| Time | 2026-05-05 19:04 |
|---|---|
| Airport | Munich Airport (EDDM) |
| Time | Latitude | Longitude | Altitude | Speed | Heading |
|---|---|---|---|---|---|
| 2026-05-05 17:34 | 50.04580 | 8.56620 | 363 ft | 0 kts | 115° |
| 2026-05-05 18:05 | 50.04588 | 8.56596 | 363 ft | 4 kts | 115° |
| 2026-05-05 18:06 | 50.04600 | 8.56559 | 360 ft | 4 kts | 118° |
| 2026-05-05 18:06 | 50.04604 | 8.56546 | 365 ft | 4 kts | 121° |
| 2026-05-05 18:06 | 50.04630 | 8.56501 | 362 ft | 4 kts | 179° |
| 2026-05-05 18:06 | 50.04634 | 8.56499 | 361 ft | 4 kts | 204° |
| 2026-05-05 18:07 | 50.04610 | 8.56482 | 362 ft | 4 kts | 204° |
| 2026-05-05 18:07 | 50.04585 | 8.56464 | 356 ft | 4 kts | 205° |
| 2026-05-05 18:07 | 50.04577 | 8.56459 | 356 ft | 1 kts | 205° |
| 2026-05-05 18:10 | 50.04563 | 8.56448 | 360 ft | 7 kts | 204° |
| 2026-05-05 18:10 | 50.04517 | 8.56381 | 358 ft | 11 kts | 245° |
| 2026-05-05 18:10 | 50.04485 | 8.56255 | 357 ft | 14 kts | 250° |
| 2026-05-05 18:11 | 50.04447 | 8.56094 | 362 ft | 17 kts | 248° |
| 2026-05-05 18:11 | 50.04362 | 8.56045 | 360 ft | 15 kts | 162° |
| 2026-05-05 18:11 | 50.04263 | 8.56037 | 358 ft | 15 kts | 229° |
| 2026-05-05 18:11 | 50.04230 | 8.55896 | 355 ft | 15 kts | 249° |
| 2026-05-05 18:12 | 50.04190 | 8.55730 | 360 ft | 17 kts | 249° |
| 2026-05-05 18:12 | 50.04143 | 8.55540 | 353 ft | 20 kts | 250° |
| 2026-05-05 18:12 | 50.04092 | 8.55329 | 358 ft | 21 kts | 250° |
| 2026-05-05 18:12 | 50.04041 | 8.55110 | 354 ft | 23 kts | 249° |
| 2026-05-05 18:13 | 50.03983 | 8.54870 | 352 ft | 24 kts | 250° |
| 2026-05-05 18:13 | 50.03921 | 8.54611 | 355 ft | 27 kts | 249° |
| 2026-05-05 18:13 | 50.03845 | 8.54341 | 349 ft | 28 kts | 237° |
| 2026-05-05 18:13 | 50.03765 | 8.54069 | 353 ft | 28 kts | 250° |
| 2026-05-05 18:14 | 50.03694 | 8.53784 | 345 ft | 29 kts | 249° |
| 2026-05-05 18:14 | 50.03625 | 8.53500 | 340 ft | 27 kts | 249° |
| 2026-05-05 18:14 | 50.03563 | 8.53253 | 335 ft | 19 kts | 249° |
| 2026-05-05 18:14 | 50.03520 | 8.53065 | 334 ft | 19 kts | 250° |
| 2026-05-05 18:15 | 50.03495 | 8.52960 | 336 ft | 3 kts | 250° |
| 2026-05-05 18:15 | 50.03495 | 8.52959 | 336 ft | 0 kts | 250° |
| 2026-05-05 18:16 | 50.03489 | 8.52931 | 334 ft | 5 kts | 250° |
| 2026-05-05 18:16 | 50.03480 | 8.52893 | 336 ft | 0 kts | 246° |
| 2026-05-05 18:17 | 50.03477 | 8.52886 | 336 ft | 3 kts | 246° |
| 2026-05-05 18:17 | 50.03463 | 8.52837 | 334 ft | 0 kts | 245° |
| 2026-05-05 18:18 | 50.03457 | 8.52819 | 334 ft | 0 kts | 244° |
| 2026-05-05 18:20 | 50.03456 | 8.52814 | 335 ft | 2 kts | 244° |
| 2026-05-05 18:20 | 50.03453 | 8.52807 | 335 ft | 0 kts | 244° |
| 2026-05-05 18:21 | 50.03448 | 8.52791 | 335 ft | 5 kts | 245° |
| 2026-05-05 18:21 | 50.03433 | 8.52733 | 331 ft | 0 kts | 249° |
| 2026-05-05 18:22 | 50.03433 | 8.52731 | 336 ft | 1 kts | 249° |
| 2026-05-05 18:22 | 50.03414 | 8.52659 | 332 ft | 13 kts | 243° |
| 2026-05-05 18:23 | 50.03334 | 8.52599 | 335 ft | 14 kts | 187° |
| 2026-05-05 18:23 | 50.03292 | 8.52594 | 333 ft | 0 kts | 180° |
| 2026-05-05 18:23 | 50.03217 | 8.52592 | 334 ft | 27 kts | 176° |
| 2026-05-05 18:24 | 50.02905 | 8.52597 | 331 ft | 73 kts | 180° |
| 2026-05-05 18:24 | 50.02184 | 8.52605 | 333 ft | 130 kts | 179° |
| 2026-05-05 18:24 | 50.01101 | 8.52585 | 697 ft | 163 kts | 181° |
| 2026-05-05 18:24 | 49.99978 | 8.52586 | 1662 ft | 162 kts | 181° |
| 2026-05-05 18:25 | 49.98857 | 8.52609 | 2494 ft | 165 kts | 182° |
| 2026-05-05 18:25 | 49.98061 | 8.52623 | 2878 ft | 178 kts | 180° |
| 2026-05-05 18:25 | 49.96430 | 8.53560 | 3681 ft | 208 kts | 141° |
| 2026-05-05 18:25 | 49.95564 | 8.55490 | 4246 ft | 232 kts | 120° |
| 2026-05-05 18:26 | 49.94784 | 8.57772 | 4778 ft | 242 kts | 120° |
| 2026-05-05 18:26 | 49.94166 | 8.60205 | 4949 ft | 245 kts | 105° |
| 2026-05-05 18:26 | 49.93983 | 8.62853 | 5217 ft | 253 kts | 94° |
| 2026-05-05 18:26 | 49.93896 | 8.65725 | 5649 ft | 277 kts | 94° |
| 2026-05-05 18:27 | 49.93565 | 8.68670 | 6636 ft | 278 kts | 114° |
| 2026-05-05 18:27 | 49.92482 | 8.71123 | 7626 ft | 277 kts | 141° |
| 2026-05-05 18:27 | 49.90944 | 8.72937 | 8629 ft | 280 kts | 148° |
| 2026-05-05 18:27 | 49.90278 | 8.73646 | 9060 ft | 282 kts | 148° |
| 2026-05-05 18:28 | 49.87436 | 8.78189 | 10501 ft | 318 kts | 123° |
| 2026-05-05 18:28 | 49.86316 | 8.81251 | 10743 ft | 343 kts | 121° |
| 2026-05-05 18:28 | 49.85151 | 8.84522 | 11543 ft | 349 kts | 121° |
| 2026-05-05 18:29 | 49.83966 | 8.87844 | 12464 ft | 354 kts | 121° |
| 2026-05-05 18:29 | 49.82759 | 8.91207 | 13318 ft | 360 kts | 121° |
| 2026-05-05 18:29 | 49.81526 | 8.94613 | 14118 ft | 365 kts | 121° |
| 2026-05-05 18:29 | 49.80299 | 8.97989 | 14987 ft | 366 kts | 122° |
| 2026-05-05 18:30 | 49.79042 | 9.01436 | 15819 ft | 369 kts | 122° |
| 2026-05-05 18:30 | 49.77775 | 9.04907 | 16617 ft | 373 kts | 122° |
| 2026-05-05 18:30 | 49.76578 | 9.08484 | 17436 ft | 377 kts | 116° |
| 2026-05-05 18:30 | 49.75693 | 9.12336 | 18215 ft | 383 kts | 108° |
| 2026-05-05 18:31 | 49.74980 | 9.16251 | 18619 ft | 383 kts | 112° |
| 2026-05-05 18:31 | 49.73822 | 9.19943 | 18779 ft | 382 kts | 124° |
| 2026-05-05 18:31 | 49.72238 | 9.23211 | 18823 ft | 379 kts | 134° |
| 2026-05-05 18:31 | 49.70482 | 9.26252 | 18823 ft | 379 kts | 134° |
| 2026-05-05 18:32 | 49.68739 | 9.29302 | 18818 ft | 379 kts | 133° |
| 2026-05-05 18:32 | 49.66996 | 9.32369 | 18824 ft | 379 kts | 133° |
| 2026-05-05 18:32 | 49.65263 | 9.35427 | 18823 ft | 380 kts | 133° |
| 2026-05-05 18:32 | 49.63526 | 9.38492 | 18827 ft | 379 kts | 133° |
| 2026-05-05 18:33 | 49.61787 | 9.41557 | 18828 ft | 379 kts | 133° |
| 2026-05-05 18:33 | 49.60048 | 9.44617 | 18826 ft | 379 kts | 133° |
| 2026-05-05 18:33 | 49.58310 | 9.47672 | 18823 ft | 379 kts | 133° |
| 2026-05-05 18:33 | 49.56566 | 9.50733 | 18824 ft | 380 kts | 133° |
| 2026-05-05 18:34 | 49.54845 | 9.53749 | 18826 ft | 379 kts | 133° |
| 2026-05-05 18:34 | 49.53105 | 9.56796 | 18826 ft | 379 kts | 133° |
| 2026-05-05 18:34 | 49.51360 | 9.59848 | 18827 ft | 379 kts | 133° |
| 2026-05-05 18:34 | 49.49614 | 9.62897 | 18828 ft | 380 kts | 133° |
| 2026-05-05 18:35 | 49.47876 | 9.65929 | 18822 ft | 379 kts | 133° |
| 2026-05-05 18:35 | 49.46121 | 9.68987 | 18827 ft | 380 kts | 134° |
| 2026-05-05 18:35 | 49.44372 | 9.72031 | 18829 ft | 380 kts | 134° |
| 2026-05-05 18:35 | 49.42622 | 9.75076 | 18830 ft | 380 kts | 134° |
| 2026-05-05 18:36 | 49.40873 | 9.78113 | 18832 ft | 380 kts | 134° |
| 2026-05-05 18:36 | 49.39118 | 9.81157 | 18830 ft | 380 kts | 134° |
| 2026-05-05 18:36 | 49.37366 | 9.84192 | 18825 ft | 380 kts | 134° |
| 2026-05-05 18:36 | 49.35609 | 9.87228 | 18829 ft | 380 kts | 134° |
| 2026-05-05 18:37 | 49.33876 | 9.90216 | 18827 ft | 380 kts | 134° |
| 2026-05-05 18:37 | 49.32121 | 9.93241 | 18829 ft | 380 kts | 134° |
| 2026-05-05 18:37 | 49.30362 | 9.96269 | 18834 ft | 380 kts | 134° |
| 2026-05-05 18:37 | 49.28599 | 9.99299 | 18824 ft | 380 kts | 134° |
| 2026-05-05 18:38 | 49.26841 | 10.02318 | 18827 ft | 380 kts | 134° |
| 2026-05-05 18:38 | 49.25079 | 10.05342 | 18836 ft | 380 kts | 134° |
| 2026-05-05 18:38 | 49.23316 | 10.08362 | 18833 ft | 380 kts | 134° |
| 2026-05-05 18:38 | 49.21557 | 10.11374 | 18839 ft | 380 kts | 134° |
| 2026-05-05 18:39 | 49.19793 | 10.14390 | 18832 ft | 380 kts | 134° |
| 2026-05-05 18:39 | 49.18029 | 10.17406 | 18835 ft | 380 kts | 134° |
| 2026-05-05 18:39 | 49.16267 | 10.20420 | 18844 ft | 380 kts | 134° |
| 2026-05-05 18:39 | 49.14505 | 10.23432 | 18854 ft | 380 kts | 134° |
| 2026-05-05 18:40 | 49.12727 | 10.26415 | 18857 ft | 380 kts | 135° |
| 2026-05-05 18:40 | 49.10907 | 10.29346 | 18858 ft | 380 kts | 136° |
| 2026-05-05 18:40 | 49.09105 | 10.32214 | 18866 ft | 380 kts | 136° |
| 2026-05-05 18:40 | 49.07275 | 10.35129 | 18868 ft | 380 kts | 136° |
| 2026-05-05 18:41 | 49.05453 | 10.38039 | 18859 ft | 380 kts | 136° |
| 2026-05-05 18:41 | 49.03629 | 10.40958 | 18871 ft | 380 kts | 136° |
| 2026-05-05 18:41 | 49.01811 | 10.43871 | 18869 ft | 380 kts | 136° |
| 2026-05-05 18:41 | 49.00064 | 10.46668 | 18864 ft | 380 kts | 136° |
| 2026-05-05 18:42 | 48.98239 | 10.49582 | 18870 ft | 380 kts | 136° |
| 2026-05-05 18:42 | 48.96415 | 10.52490 | 18874 ft | 380 kts | 136° |
| 2026-05-05 18:42 | 48.94587 | 10.55400 | 18760 ft | 380 kts | 136° |
| 2026-05-05 18:42 | 48.92764 | 10.58301 | 18519 ft | 379 kts | 136° |
| 2026-05-05 18:43 | 48.90946 | 10.61192 | 18282 ft | 377 kts | 136° |
| 2026-05-05 18:43 | 48.89159 | 10.64030 | 18038 ft | 376 kts | 136° |
| 2026-05-05 18:43 | 48.87409 | 10.66807 | 17773 ft | 375 kts | 136° |
| 2026-05-05 18:43 | 48.85605 | 10.69665 | 17500 ft | 374 kts | 136° |
| 2026-05-05 18:44 | 48.83803 | 10.72521 | 17233 ft | 373 kts | 136° |
| 2026-05-05 18:44 | 48.82009 | 10.75360 | 16970 ft | 372 kts | 136° |
| 2026-05-05 18:44 | 48.80220 | 10.78182 | 16859 ft | 370 kts | 136° |
| 2026-05-05 18:44 | 48.78426 | 10.81001 | 16850 ft | 372 kts | 136° |
| 2026-05-05 18:45 | 48.76631 | 10.83815 | 16845 ft | 371 kts | 136° |
| 2026-05-05 18:45 | 48.74835 | 10.86628 | 16841 ft | 371 kts | 136° |
| 2026-05-05 18:45 | 48.73041 | 10.89436 | 16833 ft | 371 kts | 136° |
| 2026-05-05 18:45 | 48.71249 | 10.92239 | 16831 ft | 371 kts | 136° |
| 2026-05-05 18:46 | 48.69475 | 10.95012 | 16830 ft | 371 kts | 136° |
| 2026-05-05 18:46 | 48.67679 | 10.97813 | 16830 ft | 371 kts | 136° |
| 2026-05-05 18:46 | 48.65969 | 11.00474 | 16830 ft | 371 kts | 137° |
| 2026-05-05 18:46 | 48.64171 | 11.03270 | 16828 ft | 370 kts | 137° |
| 2026-05-05 18:47 | 48.62375 | 11.06058 | 16826 ft | 371 kts | 137° |
| 2026-05-05 18:47 | 48.60582 | 11.08848 | 16655 ft | 369 kts | 135° |
| 2026-05-05 18:47 | 48.59119 | 11.12025 | 16387 ft | 372 kts | 120° |
| 2026-05-05 18:47 | 48.58019 | 11.15582 | 16125 ft | 374 kts | 116° |
| 2026-05-05 18:48 | 48.56998 | 11.19182 | 15874 ft | 373 kts | 116° |
| 2026-05-05 18:48 | 48.55967 | 11.22774 | 15621 ft | 372 kts | 116° |
| 2026-05-05 18:48 | 48.54927 | 11.26278 | 15377 ft | 370 kts | 117° |
| 2026-05-05 18:48 | 48.53854 | 11.29800 | 15125 ft | 369 kts | 117° |
| 2026-05-05 18:49 | 48.52779 | 11.33280 | 14877 ft | 368 kts | 118° |
| 2026-05-05 18:49 | 48.51690 | 11.36776 | 14636 ft | 367 kts | 118° |
| 2026-05-05 18:49 | 48.50606 | 11.40247 | 14374 ft | 365 kts | 118° |
| 2026-05-05 18:49 | 48.49521 | 11.43713 | 14134 ft | 365 kts | 118° |
| 2026-05-05 18:50 | 48.48438 | 11.47171 | 13899 ft | 364 kts | 118° |
| 2026-05-05 18:50 | 48.47359 | 11.50615 | 13683 ft | 363 kts | 118° |
| 2026-05-05 18:50 | 48.46453 | 11.54007 | 13418 ft | 365 kts | 106° |
| 2026-05-05 18:50 | 48.46287 | 11.57819 | 13151 ft | 369 kts | 86° |
| 2026-05-05 18:51 | 48.46607 | 11.61649 | 12901 ft | 368 kts | 84° |
| 2026-05-05 18:51 | 48.46942 | 11.65471 | 12634 ft | 367 kts | 84° |
| 2026-05-05 18:51 | 48.47269 | 11.69219 | 12378 ft | 364 kts | 84° |
| 2026-05-05 18:51 | 48.47597 | 11.73000 | 12128 ft | 364 kts | 84° |
| 2026-05-05 18:52 | 48.47924 | 11.76766 | 11868 ft | 361 kts | 84° |
| 2026-05-05 18:52 | 48.48249 | 11.80487 | 11470 ft | 355 kts | 84° |
| 2026-05-05 18:52 | 48.48567 | 11.84145 | 11070 ft | 349 kts | 84° |
| 2026-05-05 18:52 | 48.48879 | 11.87704 | 10664 ft | 336 kts | 84° |
| 2026-05-05 18:53 | 48.49178 | 11.91125 | 10278 ft | 323 kts | 84° |
| 2026-05-05 18:53 | 48.49472 | 11.94447 | 9903 ft | 318 kts | 84° |
| 2026-05-05 18:53 | 48.49764 | 11.97733 | 9499 ft | 315 kts | 84° |
| 2026-05-05 18:53 | 48.50043 | 12.00950 | 9086 ft | 312 kts | 84° |
| 2026-05-05 18:54 | 48.50318 | 12.04182 | 8667 ft | 309 kts | 84° |
| 2026-05-05 18:54 | 48.50582 | 12.07350 | 8264 ft | 301 kts | 84° |
| 2026-05-05 18:54 | 48.50838 | 12.10472 | 7860 ft | 299 kts | 84° |
| 2026-05-05 18:54 | 48.51084 | 12.13551 | 7462 ft | 294 kts | 84° |
| 2026-05-05 18:55 | 48.51320 | 12.16607 | 7080 ft | 294 kts | 84° |
| 2026-05-05 18:55 | 48.51551 | 12.19668 | 6715 ft | 292 kts | 84° |
| 2026-05-05 18:55 | 48.51603 | 12.22702 | 6349 ft | 288 kts | 102° |
| 2026-05-05 18:55 | 48.50857 | 12.25450 | 5975 ft | 284 kts | 128° |
| 2026-05-05 18:56 | 48.49395 | 12.27390 | 5603 ft | 280 kts | 155° |
| 2026-05-05 18:56 | 48.47567 | 12.28108 | 5211 ft | 267 kts | 184° |
| 2026-05-05 18:56 | 48.45837 | 12.27490 | 4845 ft | 251 kts | 212° |
| 2026-05-05 18:56 | 48.44587 | 12.25800 | 4480 ft | 238 kts | 234° |
| 2026-05-05 18:57 | 48.43581 | 12.23899 | 4117 ft | 232 kts | 234° |
| 2026-05-05 18:57 | 48.42592 | 12.22046 | 3967 ft | 229 kts | 234° |
| 2026-05-05 18:57 | 48.41585 | 12.20156 | 3970 ft | 229 kts | 234° |
| 2026-05-05 18:57 | 48.40590 | 12.18294 | 3971 ft | 230 kts | 235° |
| 2026-05-05 18:58 | 48.39756 | 12.16272 | 3962 ft | 224 kts | 250° |
| 2026-05-05 18:58 | 48.39315 | 12.14127 | 3997 ft | 202 kts | 260° |
| 2026-05-05 18:58 | 48.39078 | 12.12078 | 4099 ft | 198 kts | 264° |
| 2026-05-05 18:58 | 48.38901 | 12.10124 | 4130 ft | 182 kts | 264° |
| 2026-05-05 18:59 | 48.38749 | 12.08277 | 4132 ft | 173 kts | 265° |
| 2026-05-05 18:59 | 48.38615 | 12.06613 | 4112 ft | 153 kts | 265° |
| 2026-05-05 18:59 | 48.38496 | 12.05122 | 4073 ft | 137 kts | 265° |
| 2026-05-05 18:59 | 48.38384 | 12.03691 | 4082 ft | 137 kts | 265° |
| 2026-05-05 19:00 | 48.38276 | 12.02354 | 4060 ft | 124 kts | 266° |
| 2026-05-05 19:00 | 48.38175 | 12.01064 | 3935 ft | 125 kts | 266° |
| 2026-05-05 19:00 | 48.38073 | 11.99776 | 3789 ft | 123 kts | 266° |
| 2026-05-05 19:00 | 48.37973 | 11.98507 | 3621 ft | 122 kts | 266° |
| 2026-05-05 19:01 | 48.37873 | 11.97239 | 3468 ft | 122 kts | 266° |
| 2026-05-05 19:01 | 48.37769 | 11.95969 | 3297 ft | 122 kts | 266° |
| 2026-05-05 19:01 | 48.37663 | 11.94700 | 3145 ft | 122 kts | 265° |
| 2026-05-05 19:01 | 48.37555 | 11.93446 | 2994 ft | 123 kts | 265° |
| 2026-05-05 19:02 | 48.37454 | 11.92174 | 2814 ft | 122 kts | 266° |
| 2026-05-05 19:02 | 48.37365 | 11.90909 | 2649 ft | 121 kts | 266° |
| 2026-05-05 19:02 | 48.37276 | 11.89639 | 2491 ft | 124 kts | 266° |
| 2026-05-05 19:02 | 48.37174 | 11.88331 | 2323 ft | 127 kts | 265° |
| 2026-05-05 19:03 | 48.37070 | 11.87001 | 2184 ft | 128 kts | 263° |
| 2026-05-05 19:03 | 48.36950 | 11.85676 | 1987 ft | 129 kts | 264° |
| 2026-05-05 19:03 | 48.36841 | 11.84330 | 1829 ft | 129 kts | 266° |
| 2026-05-05 19:03 | 48.36751 | 11.83026 | 1670 ft | 126 kts | 265° |
| 2026-05-05 19:04 | 48.36655 | 11.81722 | 1513 ft | 124 kts | 264° |
| 2026-05-05 19:04 | 48.36570 | 11.80556 | 1485 ft | 90 kts | 263° |
| 2026-05-05 19:04 | 48.36522 | 11.79917 | 1474 ft | 33 kts | 263° |
| 2026-05-05 19:04 | 48.36495 | 11.79784 | 1478 ft | 23 kts | 230° |
| 2026-05-05 19:05 | 48.36350 | 11.79495 | 1479 ft | 26 kts | 234° |
| 2026-05-05 19:05 | 48.36302 | 11.79405 | 1480 ft | 0 kts | 232° |
| 2026-05-05 19:06 | 48.36294 | 11.79389 | 1474 ft | 8 kts | 232° |
| 2026-05-05 19:06 | 48.36216 | 11.79306 | 1474 ft | 18 kts | 184° |
| 2026-05-05 19:06 | 48.36084 | 11.79319 | 1473 ft | 15 kts | 171° |
| 2026-05-05 19:06 | 48.35964 | 11.79341 | 1481 ft | 5 kts | 174° |
| 2026-05-05 19:08 | 48.35929 | 11.79353 | 1473 ft | 9 kts | 158° |
| 2026-05-05 19:08 | 48.35860 | 11.79388 | 1482 ft | 12 kts | 175° |
| 2026-05-05 19:08 | 48.35786 | 11.79433 | 1482 ft | 8 kts | 105° |
| 2026-05-05 19:08 | 48.35791 | 11.79504 | 1479 ft | 9 kts | 83° |
| 2026-05-05 19:09 | 48.35800 | 11.79613 | 1476 ft | 12 kts | 83° |
| 2026-05-05 19:09 | 48.35811 | 11.79760 | 1482 ft | 16 kts | 83° |
| 2026-05-05 19:09 | 48.35824 | 11.79933 | 1485 ft | 16 kts | 84° |
| 2026-05-05 19:09 | 48.35810 | 11.80049 | 1478 ft | 11 kts | 138° |
| 2026-05-05 19:10 | 48.35757 | 11.80038 | 1476 ft | 8 kts | 248° |
| 2026-05-05 19:10 | 48.35745 | 11.79947 | 1476 ft | 10 kts | 263° |
| 2026-05-05 19:10 | 48.35744 | 11.79930 | 1478 ft | 2 kts | 263° |
| 2026-05-05 19:10 | 48.35744 | 11.79936 | 1480 ft | 0 kts | 261° |
| 2026-05-05 19:11 | 48.35744 | 11.79934 | 1481 ft | 0 kts | 261° |
| 2026-05-05 19:11 | 48.35744 | 11.79930 | 1478 ft | 0 kts | 263° |
| 2026-05-05 19:11 | 48.35744 | 11.79935 | 1480 ft | 0 kts | 263° |